Time;durP1;ratioP1;P1;durP2;ratioP2;P2;SDS_P1;SDS_P2;PMS_P1;PMS_P2;Temp;Humidity;BMP_temperature;BMP_pressure;BME280_temperature;BME280_humidity;BME280_pressure;Samples;Min_cycle;Max_cycle;Signal;HPM_P1;HPM_P2
2023/04/24 00:01:29;;;;;;;7.50;4.80;;;18.20;89.00;;;;;;5040325;28;20437;-74
2023/04/24 00:03:59;;;;;;;8.65;5.57;;;18.20;89.00;;;;;;5041136;28;20017;-74
2023/04/24 00:06:32;;;;;;;7.95;5.78;;;18.20;88.90;;;;;;5028964;28;20038;-74
2023/04/24 00:09:03;;;;;;;8.88;5.40;;;18.20;88.90;;;;;;5040098;28;20025;-74
2023/04/24 00:11:29;;;;;;;;;;;18.20;88.80;;;;;;5038066;28;20072;-74
2023/04/24 00:13:55;;;;;;;6.63;4.13;;;18.20;88.80;;;;;;5035420;28;19991;-74
2023/04/24 00:16:21;;;;;;;5.25;4.25;;;18.20;88.80;;;;;;5046471;28;20029;-74
2023/04/24 00:18:47;;;;;;;5.10;4.38;;;18.20;88.90;;;;;;5039039;28;20126;-74
2023/04/24 00:21:14;;;;;;;6.75;5.13;;;18.20;88.90;;;;;;5034769;28;20029;-74
2023/04/24 00:23:40;;;;;;;7.75;4.38;;;18.20;88.80;;;;;;5050797;28;20070;-74
2023/04/24 00:26:06;;;;;;;10.00;5.47;;;18.20;88.90;;;;;;5031539;28;20033;-74
2023/04/24 00:28:31;;;;;;;5.10;4.15;;;18.20;88.90;;;;;;5037101;28;20098;-74
2023/04/24 00:30:57;;;;;;;5.47;4.50;;;18.10;89.00;;;;;;5033258;28;20512;-74
2023/04/24 00:33:23;;;;;;;5.70;4.47;;;18.20;89.10;;;;;;5033306;28;20497;-74
2023/04/24 00:35:48;;;;;;;6.20;4.40;;;18.20;89.10;;;;;;5032551;28;20025;-74
2023/04/24 00:38:14;;;;;;;8.48;4.45;;;18.20;89.10;;;;;;5035816;28;20033;-74
2023/04/24 00:40:40;;;;;;;5.60;5.00;;;18.20;88.90;;;;;;5034218;28;20116;-73
2023/04/24 00:43:05;;;;;;;7.53;4.53;;;18.20;88.70;;;;;;5036530;28;20037;-73
2023/04/24 00:45:31;;;;;;;5.47;4.70;;;18.10;88.50;;;;;;5049058;28;20033;-73
2023/04/24 00:47:57;;;;;;;6.05;4.57;;;18.20;88.40;;;;;;5033299;28;20478;-74
2023/04/24 00:50:24;;;;;;;5.88;4.47;;;18.10;88.10;;;;;;5042292;28;20071;-74
2023/04/24 00:52:50;;;;;;;7.18;4.93;;;18.10;88.00;;;;;;5013330;28;20052;-74
2023/04/24 00:55:16;;;;;;;5.45;4.80;;;18.10;87.90;;;;;;5030256;28;20052;-74
2023/04/24 00:57:42;;;;;;;6.93;4.85;;;18.00;87.80;;;;;;5028907;28;20477;-73
2023/04/24 01:00:11;;;;;;;6.30;4.72;;;18.10;87.80;;;;;;5041043;28;20484;-73
2023/04/24 01:02:44;;;;;;;5.93;5.15;;;18.00;87.70;;;;;;5029967;28;20423;-74
2023/04/24 01:05:15;;;;;;;8.07;5.43;;;17.90;87.70;;;;;;5025544;28;20029;-74
2023/04/24 01:07:43;;;;;;;;;;;18.00;87.80;;;;;;5004680;28;20026;-74
2023/04/24 01:10:09;;;;;;;7.60;5.80;;;17.90;87.90;;;;;;5044924;28;20004;-74
2023/04/24 01:12:35;;;;;;;7.28;5.18;;;17.90;87.90;;;;;;5010745;28;20037;-74
2023/04/24 01:15:01;;;;;;;7.22;5.93;;;17.90;88.00;;;;;;5032689;28;20142;-74
2023/04/24 01:17:27;;;;;;;8.95;5.80;;;17.80;87.90;;;;;;5019764;28;20049;-75
2023/04/24 01:19:56;;;;;;;6.88;4.95;;;17.80;87.90;;;;;;5039528;28;20036;-75
2023/04/24 01:22:22;;;;;;;8.55;5.80;;;17.80;88.10;;;;;;5032609;28;20473;-75
2023/04/24 01:24:48;;;;;;;6.88;5.60;;;17.80;88.20;;;;;;5017881;28;20466;-75
2023/04/24 01:27:14;;;;;;;11.90;5.78;;;17.80;88.20;;;;;;5029618;28;20080;-74
2023/04/24 01:29:40;;;;;;;10.68;5.68;;;17.80;88.20;;;;;;5040428;28;20033;-74
2023/04/24 01:32:06;;;;;;;8.73;5.95;;;17.80;88.10;;;;;;5030338;28;20064;-74
2023/04/24 01:34:32;;;;;;;6.85;5.30;;;17.80;88.20;;;;;;5032626;28;20474;-75
2023/04/24 01:36:58;;;;;;;10.07;6.25;;;17.80;88.10;;;;;;5021515;28;20038;-74
2023/04/24 01:39:25;;;;;;;7.90;5.85;;;17.80;88.10;;;;;;5036061;28;20026;-74
2023/04/24 01:41:51;;;;;;;10.45;5.72;;;17.80;88.20;;;;;;5023834;28;20021;-74
2023/04/24 01:44:18;;;;;;;7.32;5.53;;;17.80;88.20;;;;;;5030643;28;20029;-74
2023/04/24 01:46:44;;;;;;;10.27;7.43;;;17.70;88.20;;;;;;5021370;28;20030;-74
2023/04/24 01:49:10;;;;;;;10.30;6.60;;;17.70;88.30;;;;;;5041363;28;20014;-74
2023/04/24 01:51:36;;;;;;;8.57;5.78;;;17.60;88.30;;;;;;5030979;28;20083;-74
2023/04/24 01:54:02;;;;;;;6.93;5.90;;;17.60;88.30;;;;;;5010797;28;20029;-74
2023/04/24 01:56:34;;;;;;;8.52;6.13;;;17.60;88.40;;;;;;5032301;28;20389;-74
2023/04/24 01:59:02;;;;;;;7.25;5.95;;;17.60;88.50;;;;;;5037990;28;20021;-74
2023/04/24 02:01:32;;;;;;;8.25;5.75;;;17.60;88.60;;;;;;5032543;28;20032;-74
2023/04/24 02:03:58;;;;;;;9.82;6.45;;;17.60;88.60;;;;;;5029593;28;20040;-74
2023/04/24 02:06:24;;;;;;;8.38;6.10;;;17.60;88.70;;;;;;5032563;28;20029;-74
2023/04/24 02:08:49;;;;;;;6.93;5.68;;;17.60;88.60;;;;;;5033436;28;20481;-74
2023/04/24 02:11:15;;;;;;;7.13;5.60;;;17.60;88.60;;;;;;5051871;28;20033;-74
2023/04/24 02:13:41;;;;;;;10.57;6.68;;;17.60;88.80;;;;;;5033562;28;20072;-74
2023/04/24 02:16:06;;;;;;;8.40;6.93;;;17.60;88.70;;;;;;5025808;28;20088;-75
2023/04/24 02:18:32;;;;;;;7.90;6.05;;;17.60;88.80;;;;;;5025249;28;20057;-75
2023/04/24 02:20:57;;;;;;;8.30;6.97;;;17.60;88.80;;;;;;5037640;28;20043;-74
2023/04/24 02:23:23;;;;;;;8.48;7.20;;;17.60;88.80;;;;;;5046895;28;20108;-74
2023/04/24 02:25:49;;;;;;;11.15;7.88;;;17.60;88.90;;;;;;5044729;28;20105;-74
2023/04/24 02:28:14;;;;;;;9.13;6.93;;;17.60;88.80;;;;;;5037348;28;20454;-74
2023/04/24 02:30:40;;;;;;;8.05;6.13;;;17.60;88.80;;;;;;5039241;28;20041;-75
2023/04/24 02:33:06;;;;;;;6.93;5.88;;;17.60;88.90;;;;;;5033524;28;20025;-74
2023/04/24 02:35:31;;;;;;;10.57;7.03;;;17.60;88.90;;;;;;5055282;28;20036;-74
2023/04/24 02:37:57;;;;;;;12.10;6.85;;;17.60;89.00;;;;;;5042920;28;20041;-74
2023/04/24 02:40:23;;;;;;;8.68;5.97;;;17.60;88.90;;;;;;5035517;28;20374;-74
2023/04/24 02:42:48;;;;;;;8.85;6.68;;;17.60;88.80;;;;;;5035193;28;20384;-74
2023/04/24 02:45:14;;;;;;;8.63;6.47;;;17.60;88.70;;;;;;5024454;28;20045;-74
2023/04/24 02:47:40;;;;;;;7.38;5.82;;;17.60;88.80;;;;;;5028710;28;20034;-74
2023/04/24 02:50:06;;;;;;;6.85;5.90;;;17.60;88.80;;;;;;5034571;28;20026;-75
2023/04/24 02:52:32;;;;;;;7.47;5.82;;;17.60;88.80;;;;;;5025570;28;20401;-74
2023/04/24 02:54:57;;;;;;;9.93;5.93;;;17.60;88.70;;;;;;5051193;28;20033;-74
2023/04/24 02:57:23;;;;;;;5.88;5.15;;;17.60;88.60;;;;;;5043474;28;20104;-74
2023/04/24 02:59:49;;;;;;;7.93;5.88;;;17.60;88.60;;;;;;5036515;28;20033;-74
2023/04/24 03:02:14;;;;;;;8.68;5.63;;;17.60;88.60;;;;;;5037394;28;20033;-74
2023/04/24 03:04:42;;;;;;;7.28;5.40;;;17.60;88.60;;;;;;5050308;28;20025;-74
2023/04/24 03:07:08;;;;;;;9.23;5.50;;;17.60;88.70;;;;;;5048200;28;20092;-75
2023/04/24 03:09:34;;;;;;;6.25;5.18;;;17.60;88.80;;;;;;5034254;28;20121;-74
2023/04/24 03:12:00;;;;;;;8.50;4.90;;;17.50;88.80;;;;;;5035582;28;20097;-74
2023/04/24 03:14:26;;;;;;;9.85;5.00;;;17.60;88.90;;;;;;5026697;28;20478;-75
2023/04/24 03:16:51;;;;;;;6.53;5.05;;;17.50;88.90;;;;;;5037594;28;20024;-75
2023/04/24 03:19:17;;;;;;;9.23;6.25;;;17.50;89.00;;;;;;5035557;28;20449;-74
2023/04/24 03:21:43;;;;;;;9.70;6.85;;;17.50;89.00;;;;;;5034662;28;20079;-74
2023/04/24 03:24:09;;;;;;;6.40;5.05;;;17.50;89.10;;;;;;5015945;28;20029;-75
2023/04/24 03:26:35;;;;;;;9.10;5.40;;;17.40;89.10;;;;;;5035769;28;20040;-75
2023/04/24 03:29:01;;;;;;;8.32;6.32;;;17.40;89.10;;;;;;5024512;28;20018;-76
2023/04/24 03:31:27;;;;;;;6.05;4.75;;;17.50;89.30;;;;;;5033306;28;20078;-76
2023/04/24 03:33:52;;;;;;;8.38;5.07;;;17.50;89.50;;;;;;5033458;28;20489;-75
2023/04/24 03:36:19;;;;;;;9.82;6.07;;;17.50;89.50;;;;;;5033998;28;20117;-75
2023/04/24 03:38:45;;;;;;;8.95;5.45;;;17.50;89.50;;;;;;5017156;28;20030;-75
2023/04/24 03:41:11;;;;;;;7.05;4.97;;;17.50;89.50;;;;;;5034082;28;20516;-75
2023/04/24 03:43:38;;;;;;;8.20;5.47;;;17.50;89.50;;;;;;5017648;28;20028;-76
2023/04/24 03:46:03;;;;;;;8.52;5.10;;;17.50;89.60;;;;;;5025192;28;20033;-75
2023/04/24 03:48:29;;;;;;;7.18;4.80;;;17.50;89.70;;;;;;5034179;28;20389;-75
2023/04/24 03:50:55;;;;;;;7.78;5.07;;;17.50;89.80;;;;;;5035977;28;20477;-74
2023/04/24 03:53:21;;;;;;;9.65;5.63;;;17.50;89.80;;;;;;5044033;28;20040;-75
2023/04/24 03:55:47;;;;;;;6.07;5.20;;;17.50;89.90;;;;;;5022021;28;20028;-74
2023/04/24 03:58:19;;;;;;;7.78;5.00;;;17.50;89.90;;;;;;5033464;28;20032;-75
2023/04/24 04:00:47;;;;;;;7.82;5.07;;;17.40;90.00;;;;;;5018397;28;20038;-75
2023/04/24 04:03:14;;;;;;;10.82;5.57;;;17.40;89.90;;;;;;5034956;28;20048;-75
2023/04/24 04:05:40;;;;;;;6.85;5.05;;;17.40;90.10;;;;;;5040899;28;20024;-75
2023/04/24 04:08:05;;;;;;;9.10;5.45;;;17.30;90.20;;;;;;5033125;28;20022;-75
2023/04/24 04:10:31;;;;;;;6.65;4.75;;;17.30;90.20;;;;;;5035123;28;20532;-74
2023/04/24 04:12:57;;;;;;;9.13;5.50;;;17.30;90.20;;;;;;5035087;28;20025;-74
2023/04/24 04:15:23;;;;;;;6.82;5.22;;;17.30;90.30;;;;;;5023242;28;20029;-73
2023/04/24 04:17:49;;;;;;;9.02;5.78;;;17.20;90.20;;;;;;5045153;28;20096;-74
2023/04/24 04:20:15;;;;;;;8.18;5.07;;;17.20;90.30;;;;;;5032339;28;20065;-74
2023/04/24 04:22:41;;;;;;;7.68;5.00;;;17.20;90.40;;;;;;5043825;28;20464;-75
2023/04/24 04:25:08;;;;;;;8.00;5.97;;;17.20;90.50;;;;;;5017729;28;20029;-75
2023/04/24 04:27:34;;;;;;;7.65;5.05;;;17.20;90.80;;;;;;5048789;28;20040;-74
2023/04/24 04:30:04;;;;;;;7.90;4.97;;;17.20;90.90;;;;;;5033582;28;20033;-74
2023/04/24 04:32:34;;;;;;;8.00;4.78;;;17.10;91.10;;;;;;5025076;28;20052;-73
2023/04/24 04:35:03;;;;;;;8.23;5.32;;;17.00;91.30;;;;;;5030930;28;20029;-73
2023/04/24 04:37:34;;;;;;;6.88;5.75;;;17.00;91.30;;;;;;5036454;28;20108;-73
2023/04/24 04:40:00;;;;;;;8.23;5.32;;;17.00;91.50;;;;;;5033350;28;20064;-73
2023/04/24 04:42:27;;;;;;;8.50;6.20;;;17.00;91.60;;;;;;5031659;28;20032;-74
2023/04/24 04:44:53;;;;;;;7.22;5.65;;;17.00;91.80;;;;;;5028972;28;20021;-73
2023/04/24 04:47:22;;;;;;;10.93;7.88;;;17.00;91.90;;;;;;5050822;28;20037;-74
2023/04/24 04:49:48;;;;;;;10.40;6.93;;;17.00;92.20;;;;;;5015115;28;20386;-73
2023/04/24 04:52:13;;;;;;;8.02;6.25;;;16.90;92.20;;;;;;5015680;28;20033;-78
2023/04/24 04:54:42;;;;;;;9.68;6.60;;;17.00;92.40;;;;;;5029816;28;20480;-79
2023/04/24 04:57:07;;;;;;;9.05;6.10;;;16.90;92.50;;;;;;5022726;28;20393;-78
2023/04/24 04:59:33;;;;;;;9.32;6.45;;;17.00;92.60;;;;;;5016952;28;20052;-77
2023/04/24 05:01:59;;;;;;;9.07;6.25;;;17.00;92.60;;;;;;5026484;28;20029;-77
2023/04/24 05:04:25;;;;;;;9.77;6.90;;;17.00;92.80;;;;;;5018046;28;20112;-76
2023/04/24 05:06:51;;;;;;;9.63;6.47;;;17.10;92.90;;;;;;5025716;28;20108;-76
2023/04/24 05:09:16;;;;;;;8.38;6.00;;;17.10;92.90;;;;;;5027232;28;20030;-76
2023/04/24 05:11:42;;;;;;;7.53;5.78;;;17.10;93.00;;;;;;5032659;28;20125;-76
2023/04/24 05:14:08;;;;;;;11.65;6.20;;;17.10;93.00;;;;;;5025028;28;20430;-76
2023/04/24 05:16:34;;;;;;;9.80;6.32;;;17.10;93.00;;;;;;5033504;28;20546;-76
2023/04/24 05:18:59;;;;;;;10.02;6.18;;;17.10;93.10;;;;;;5036050;28;20045;-77
2023/04/24 05:21:26;;;;;;;9.20;6.45;;;17.10;93.40;;;;;;5012552;28;20029;-77
2023/04/24 05:23:52;;;;;;;10.70;6.45;;;17.10;93.20;;;;;;5023283;28;20034;-76
2023/04/24 05:26:17;;;;;;;9.10;6.38;;;17.10;93.30;;;;;;5026784;28;20025;-77
2023/04/24 05:28:43;;;;;;;9.20;5.75;;;17.10;93.30;;;;;;5026562;28;20069;-76
2023/04/24 05:31:09;;;;;;;8.15;6.25;;;17.10;93.40;;;;;;5039184;28;20037;-76
2023/04/24 05:33:34;;;;;;;10.63;7.20;;;17.00;93.30;;;;;;5009052;28;20044;-79
2023/04/24 05:36:00;;;;;;;8.52;5.82;;;17.10;93.50;;;;;;5030896;28;20036;-76
2023/04/24 05:38:26;;;;;;;8.68;6.22;;;17.10;93.60;;;;;;5039372;28;20037;-76
2023/04/24 05:40:52;;;;;;;8.95;5.78;;;17.20;93.70;;;;;;5031665;28;20029;-76
2023/04/24 05:43:17;;;;;;;11.50;6.70;;;17.20;93.70;;;;;;5049620;28;20385;-77
2023/04/24 05:45:43;;;;;;;10.68;6.28;;;17.20;93.90;;;;;;5013535;28;20033;-79
2023/04/24 05:48:09;;;;;;;10.18;6.78;;;17.30;93.70;;;;;;5027397;28;20036;-77
2023/04/24 05:50:34;;;;;;;12.43;6.85;;;17.40;93.60;;;;;;5037262;28;20120;-77
2023/04/24 05:53:02;;;;;;;11.73;6.32;;;17.40;93.50;;;;;;5035072;28;20030;-77
2023/04/24 05:55:27;;;;;;;10.82;5.95;;;17.40;93.60;;;;;;5035243;28;20460;-77
2023/04/24 05:57:56;;;;;;;11.00;6.75;;;17.50;93.50;;;;;;5025348;28;20040;-76
2023/04/24 06:00:21;;;;;;;8.38;6.40;;;17.50;93.40;;;;;;5027093;28;20038;-76
2023/04/24 06:02:47;;;;;;;8.52;6.22;;;17.50;93.40;;;;;;5042354;28;20086;-77
2023/04/24 06:05:14;;;;;;;10.15;6.47;;;17.50;93.30;;;;;;5011150;28;20026;-77
2023/04/24 06:07:40;;;;;;;9.43;6.50;;;17.50;93.40;;;;;;5025958;28;20025;-77
2023/04/24 06:10:06;;;;;;;9.13;5.88;;;17.40;93.50;;;;;;5023238;28;20343;-77
2023/04/24 06:12:31;;;;;;;9.40;6.32;;;17.40;93.50;;;;;;5033168;28;20040;-78
2023/04/24 06:14:57;;;;;;;11.02;6.65;;;17.40;93.50;;;;;;5028983;28;20029;-83
2023/04/24 06:17:23;;;;;;;13.75;6.90;;;17.40;93.60;;;;;;5032646;28;20048;-79
2023/04/24 06:19:48;;;;;;;9.15;6.55;;;17.50;93.70;;;;;;5037149;28;20033;-79
2023/04/24 06:22:15;;;;;;;11.52;6.53;;;17.50;93.60;;;;;;5029868;28;20034;-82
2023/04/24 06:24:43;;;;;;;11.05;6.22;;;17.50;93.60;;;;;;5029287;28;20013;-78
2023/04/24 06:27:09;;;;;;;10.93;6.85;;;17.50;93.50;;;;;;4998051;28;20034;-79
2023/04/24 06:29:36;;;;;;;7.93;6.78;;;17.50;93.50;;;;;;5019568;28;20033;-87
2023/04/24 06:32:02;;;;;;;11.43;6.60;;;17.50;93.60;;;;;;5036062;28;20133;-88
2023/04/24 06:34:27;;;;;;;7.28;5.68;;;17.50;93.50;;;;;;5035162;28;20025;-87
2023/04/24 06:36:54;;;;;;;9.73;5.45;;;17.50;93.50;;;;;;5008560;28;20033;-88
2023/04/24 06:39:20;;;;;;;10.68;5.88;;;17.60;93.50;;;;;;5034682;28;20374;-88
2023/04/24 06:41:46;;;;;;;9.82;5.47;;;17.60;93.50;;;;;;5027347;28;20037;-88
2023/04/24 06:44:11;;;;;;;12.02;6.32;;;17.60;93.40;;;;;;5032209;28;20398;-88
2023/04/24 06:46:37;;;;;;;9.50;6.40;;;17.70;93.30;;;;;;5045721;28;20021;-88
2023/04/24 06:49:03;;;;;;;7.60;5.75;;;17.70;93.40;;;;;;5034178;28;20017;-87
2023/04/24 06:51:28;;;;;;;9.85;5.63;;;17.70;93.40;;;;;;5041629;28;20108;-87
2023/04/24 06:53:55;;;;;;;7.45;5.50;;;17.70;93.30;;;;;;5055467;28;20412;-88
2023/04/24 06:56:22;;;;;;;10.68;6.35;;;17.70;93.20;;;;;;5033812;28;20500;-88
2023/04/24 06:58:48;;;;;;;11.15;5.95;;;17.60;93.40;;;;;;5017718;28;20116;-88
2023/04/24 07:01:14;;;;;;;9.18;6.00;;;17.70;93.30;;;;;;5020373;28;20446;-87
2023/04/24 07:03:39;;;;;;;8.30;4.43;;;17.60;93.30;;;;;;5015928;28;20038;-88
2023/04/24 07:06:05;;;;;;;7.65;4.63;;;17.70;93.20;;;;;;5031082;28;20423;-88
2023/04/24 07:08:32;;;;;;;7.25;3.65;;;17.70;92.90;;;;;;5017361;28;20118;-87
2023/04/24 07:10:59;;;;;;;6.93;3.97;;;17.70;92.80;;;;;;5032178;28;20040;-88
2023/04/24 07:13:25;;;;;;;6.22;3.75;;;17.70;92.80;;;;;;5035089;28;20033;-88
2023/04/24 07:15:52;;;;;;;6.50;3.42;;;17.70;92.70;;;;;;5035332;28;20029;-88
2023/04/24 07:18:18;;;;;;;5.10;3.40;;;17.70;92.60;;;;;;5034954;28;20051;-88
2023/04/24 07:20:44;;;;;;;3.72;2.50;;;17.70;92.50;;;;;;5035184;28;20393;-87
2023/04/24 07:23:10;;;;;;;6.13;2.95;;;17.70;92.40;;;;;;5035183;28;20488;-88
2023/04/24 07:25:36;;;;;;;8.32;2.85;;;17.60;92.40;;;;;;5035029;28;20026;-87
2023/04/24 07:28:02;;;;;;;4.70;2.67;;;17.60;92.40;;;;;;5026302;28;20029;-87
2023/04/24 07:30:32;;;;;;;7.90;3.33;;;17.60;92.40;;;;;;5027195;28;20108;-87
2023/04/24 07:32:59;;;;;;;8.43;3.15;;;17.60;92.40;;;;;;5035143;28;20053;-87
2023/04/24 07:35:25;;;;;;;5.05;2.70;;;17.60;92.40;;;;;;5038202;28;20048;-87
2023/04/24 07:37:55;;;;;;;6.20;3.03;;;17.60;92.50;;;;;;5032668;28;20029;-86
2023/04/24 07:40:21;;;;;;;3.90;2.77;;;17.50;92.60;;;;;;5015811;28;20069;-88
2023/04/24 07:42:50;;;;;;;6.22;2.97;;;17.50;92.90;;;;;;5028525;28;20268;-88
2023/04/24 07:45:16;;;;;;;4.28;3.17;;;17.50;93.00;;;;;;5004282;28;20479;-87
2023/04/24 07:47:45;;;;;;;4.60;3.03;;;17.60;93.00;;;;;;5022358;28;20133;-89
2023/04/24 07:50:12;;;;;;;7.03;3.38;;;17.50;93.00;;;;;;5040996;28;20075;-88
2023/04/24 07:52:38;;;;;;;4.82;3.58;;;17.50;93.00;;;;;;5037101;28;20025;-85
2023/04/24 07:55:04;;;;;;;4.80;2.50;;;17.50;93.10;;;;;;5035535;28;20040;-85
2023/04/24 07:57:30;;;;;;;3.92;2.90;;;17.50;93.00;;;;;;5034222;28;20358;-86
2023/04/24 07:59:56;;;;;;;6.32;2.97;;;17.60;92.80;;;;;;5035582;28;20044;-83
2023/04/24 08:02:26;;;;;;;4.85;2.63;;;17.50;92.80;;;;;;5035080;28;20025;-83
2023/04/24 08:04:53;;;;;;;6.38;3.30;;;17.60;92.60;;;;;;5032480;28;20022;-82
2023/04/24 08:07:19;;;;;;;5.38;3.35;;;17.60;92.60;;;;;;5028884;28;20037;-82
2023/04/24 08:09:45;;;;;;;6.13;2.70;;;17.50;92.40;;;;;;5021870;28;20014;-82
2023/04/24 08:12:11;;;;;;;7.00;3.80;;;17.50;92.20;;;;;;5035495;28;20429;-82
2023/04/24 08:14:36;;;;;;;6.28;3.38;;;17.50;92.30;;;;;;5024270;28;20026;-82
2023/04/24 08:17:03;;;;;;;5.63;3.13;;;17.50;92.40;;;;;;5016541;28;20386;-78
2023/04/24 08:19:29;;;;;;;7.57;3.15;;;17.50;92.40;;;;;;5030758;28;20044;-78
2023/04/24 08:21:54;;;;;;;7.07;4.10;;;17.60;92.40;;;;;;5035627;28;20386;-79
2023/04/24 08:24:20;;;;;;;9.02;3.50;;;17.60;92.20;;;;;;5018366;28;20041;-78
2023/04/24 08:26:49;;;;;;;5.95;3.53;;;17.60;91.90;;;;;;5027212;28;20493;-78
2023/04/24 08:29:15;;;;;;;8.05;3.65;;;17.70;92.10;;;;;;5029627;28;20018;-78
2023/04/24 08:31:40;;;;;;;4.13;2.80;;;17.70;92.00;;;;;;5015940;28;20041;-78
2023/04/24 08:34:06;;;;;;;5.60;3.38;;;17.60;92.00;;;;;;5031326;28;20596;-78
2023/04/24 08:36:32;;;;;;;5.05;3.45;;;17.60;92.10;;;;;;5024656;28;20374;-78
2023/04/24 08:38:58;;;;;;;5.05;3.05;;;17.60;92.10;;;;;;5028102;28;20057;-78
2023/04/24 08:41:25;;;;;;;4.55;3.53;;;17.60;92.00;;;;;;5033325;28;20118;-78
2023/04/24 08:43:51;;;;;;;7.05;4.22;;;17.50;92.20;;;;;;5042895;28;20039;-78
2023/04/24 08:46:19;;;;;;;3.72;3.42;;;17.50;92.50;;;;;;5035099;28;20092;-78
2023/04/24 08:48:45;;;;;;;4.63;3.28;;;17.40;92.50;;;;;;5035832;28;20091;-78
2023/04/24 08:51:11;;;;;;;4.43;3.50;;;17.30;92.60;;;;;;5013293;28;20029;-78
2023/04/24 08:53:38;;;;;;;5.03;3.72;;;17.20;92.80;;;;;;5026641;28;20044;-78
2023/04/24 08:56:05;;;;;;;4.05;2.95;;;17.20;93.00;;;;;;5024268;28;20037;-78
2023/04/24 08:58:31;;;;;;;3.13;2.40;;;17.10;92.90;;;;;;5019186;28;20049;-82
2023/04/24 09:00:58;;;;;;;4.28;3.45;;;17.10;92.80;;;;;;5035238;28;20112;-83
2023/04/24 09:03:26;;;;;;;3.08;2.47;;;17.10;93.00;;;;;;5038630;28;20024;-83
2023/04/24 09:05:54;;;;;;;2.97;2.65;;;17.10;93.00;;;;;;5031398;28;20029;-83
2023/04/24 09:08:27;;;;;;;5.50;3.00;;;17.20;93.00;;;;;;5035472;28;20025;-83
2023/04/24 09:10:53;;;;;;;3.90;2.88;;;17.20;93.00;;;;;;5031277;28;20044;-83
2023/04/24 09:13:20;;;;;;;4.60;3.25;;;17.20;93.00;;;;;;5020012;28;20018;-83
2023/04/24 09:15:46;;;;;;;3.45;2.90;;;17.30;93.10;;;;;;5040154;28;20107;-83
2023/04/24 09:18:12;;;;;;;6.00;4.60;;;17.30;93.10;;;;;;5014281;28;20050;-83
2023/04/24 09:21:17;;;;;;;3.10;2.70;;;17.40;93.10;;;;;;5039445;28;20404;-83
2023/04/24 09:23:42;;;;;;;3.97;3.17;;;17.50;93.00;;;;;;5018784;28;20033;-84
2023/04/24 09:26:10;;;;;;;4.82;3.60;;;17.60;93.00;;;;;;5042631;28;20040;-83
2023/04/24 09:28:38;;;;;;;4.60;3.47;;;17.80;93.20;;;;;;5042999;28;20033;-83
2023/04/24 09:31:18;;;;;;;4.70;3.50;;;18.00;93.10;;;;;;5041513;28;20029;-78
2023/04/24 09:33:59;;;;;;;4.40;3.30;;;18.10;92.70;;;;;;5036988;28;20072;-78
2023/04/24 09:36:44;;;;;;;4.75;3.15;;;18.30;92.50;;;;;;5039701;28;20053;-78
2023/04/24 09:39:15;;;;;;;5.35;2.88;;;18.40;92.10;;;;;;5034672;28;20029;-78
2023/04/24 09:41:49;;;;;;;3.33;2.70;;;18.50;92.00;;;;;;5019415;28;20036;-78
2023/04/24 09:44:17;;;;;;;5.10;3.17;;;18.70;91.80;;;;;;5038444;28;20149;-78
2023/04/24 09:46:45;;;;;;;6.45;4.22;;;18.80;91.80;;;;;;5035100;28;20039;-78
2023/04/24 09:49:15;;;;;;;5.18;3.50;;;18.80;90.70;;;;;;5029148;28;20426;-78
2023/04/24 09:51:41;;;;;;;2.55;2.30;;;18.70;90.90;;;;;;5036372;28;20190;-78
2023/04/24 09:54:19;;;;;;;4.32;2.28;;;18.80;90.70;;;;;;5034906;28;20108;-78
2023/04/24 09:56:47;;;;;;;5.93;3.28;;;18.80;90.50;;;;;;5016293;28;20528;-78
2023/04/24 09:59:14;;;;;;;2.90;2.60;;;18.90;90.10;;;;;;5019018;28;20041;-79
2023/04/24 10:01:50;;;;;;;3.67;2.67;;;19.00;90.10;;;;;;5029599;28;20474;-78
2023/04/24 10:04:18;;;;;;;2.28;1.83;;;19.00;89.70;;;;;;5016746;28;20362;-78
2023/04/24 10:06:44;;;;;;;3.65;2.38;;;19.00;90.00;;;;;;5025410;28;20057;-79
2023/04/24 10:09:13;;;;;;;6.00;2.22;;;19.00;90.00;;;;;;5042394;28;20025;-79
2023/04/24 10:11:47;;;;;;;4.78;2.55;;;19.00;89.00;;;;;;5034427;28;20056;-78
2023/04/24 10:14:18;;;;;;;5.68;1.98;;;18.90;89.00;;;;;;5033531;28;20533;-78
2023/04/24 10:16:46;;;;;;;3.65;1.63;;;18.80;88.60;;;;;;5035143;28;20351;-79
2023/04/24 10:19:13;;;;;;;3.78;1.75;;;18.70;88.70;;;;;;5029550;28;20034;-78
2023/04/24 10:21:42;;;;;;;6.88;2.50;;;18.70;88.00;;;;;;5040938;28;20060;-79
2023/04/24 10:24:12;;;;;;;4.40;2.03;;;18.60;88.00;;;;;;5028917;28;20057;-78
2023/04/24 10:26:40;;;;;;;2.33;1.40;;;18.50;87.70;;;;;;5041126;28;20026;-80
2023/04/24 10:29:09;;;;;;;2.65;1.77;;;18.40;88.40;;;;;;5036984;28;20028;-81
2023/04/24 10:31:37;;;;;;;1.67;1.50;;;18.40;88.30;;;;;;5047540;28;20040;-82
2023/04/24 10:34:05;;;;;;;3.67;1.75;;;18.30;88.60;;;;;;5036026;28;20322;-81
2023/04/24 10:36:32;;;;;;;2.75;1.30;;;18.30;89.10;;;;;;5028129;28;20104;-81
2023/04/24 10:39:00;;;;;;;3.13;1.60;;;18.20;88.90;;;;;;5039668;28;20026;-81
2023/04/24 10:41:26;;;;;;;2.10;1.10;;;18.30;89.70;;;;;;5018775;28;20038;-81
2023/04/24 10:44:13;;;;;;;4.82;1.83;;;18.30;89.30;;;;;;5039230;28;20048;-81
2023/04/24 10:46:42;;;;;;;2.25;1.80;;;18.30;89.10;;;;;;5003861;28;20036;-81
2023/04/24 10:49:08;;;;;;;2.50;1.45;;;18.30;89.10;;;;;;5023559;28;20022;-80
2023/04/24 10:51:46;;;;;;;1.85;1.30;;;18.30;88.70;;;;;;5016285;28;20049;-81
2023/04/24 10:54:29;;;;;;;2.55;2.20;;;18.30;88.70;;;;;;5032997;28;20028;-81
2023/04/24 10:57:20;;;;;;;2.72;1.55;;;18.30;87.90;;;;;;5051917;28;20531;-80
2023/04/24 10:59:47;;;;;;;3.17;2.00;;;18.20;87.70;;;;;;5016468;28;20044;-81
2023/04/24 11:02:17;;;;;;;1.48;1.30;;;18.10;88.00;;;;;;5034765;28;20052;-81
2023/04/24 11:04:44;;;;;;;1.77;1.30;;;18.10;88.10;;;;;;5034971;28;20026;-80
2023/04/24 11:07:11;;;;;;;2.53;1.35;;;18.10;87.90;;;;;;5003358;28;20107;-80
2023/04/24 11:09:40;;;;;;;1.48;0.90;;;18.20;87.30;;;;;;5031902;28;20147;-80
2023/04/24 11:12:14;;;;;;;3.25;1.00;;;18.30;86.30;;;;;;5034164;28;20017;-79
2023/04/24 11:15:03;;;;;;;1.58;0.80;;;18.40;86.40;;;;;;5034580;28;20030;-79
2023/04/24 11:17:37;;;;;;;1.20;0.70;;;18.40;82.70;;;;;;5025899;28;20187;-79
2023/04/24 11:20:16;;;;;;;1.67;0.60;;;18.50;82.70;;;;;;5018363;28;20120;-79
2023/04/24 11:22:42;;;;;;;0.70;0.40;;;18.50;82.60;;;;;;5037700;28;20067;-79
2023/04/24 11:25:09;;;;;;;0.80;0.60;;;18.60;81.60;;;;;;5005850;28;20045;-79
2023/04/24 11:27:43;;;;;;;0.47;0.47;;;18.50;82.60;;;;;;5033689;28;20064;-79
2023/04/24 11:30:10;;;;;;;0.63;0.40;;;18.60;82.70;;;;;;5034700;28;20022;-79
2023/04/24 11:32:41;;;;;;;1.23;0.28;;;18.70;79.20;;;;;;5027433;28;20041;-79
2023/04/24 11:35:08;;;;;;;0.20;0.20;;;18.70;78.90;;;;;;5023800;28;20410;-79
2023/04/24 11:37:36;;;;;;;1.17;0.32;;;18.80;79.80;;;;;;5007278;28;20121;-79
2023/04/24 11:40:02;;;;;;;0.55;0.40;;;19.10;79.70;;;;;;5030568;28;20750;-79
2023/04/24 11:42:28;;;;;;;0.30;0.30;;;19.40;79.00;;;;;;5036726;28;20021;-78
2023/04/24 11:44:57;;;;;;;0.93;0.50;;;19.60;78.50;;;;;;5052354;28;20049;-78
2023/04/24 11:47:30;;;;;;;0.20;0.20;;;19.90;78.90;;;;;;5044192;28;20131;-79
2023/04/24 11:49:56;;;;;;;0.60;0.20;;;20.20;77.40;;;;;;5050024;28;20071;-79
2023/04/24 11:52:21;;;;;;;0.98;0.25;;;20.30;75.50;;;;;;5017608;28;20021;-79
2023/04/24 11:54:50;;;;;;;2.50;0.50;;;20.30;75.10;;;;;;5040210;28;20112;-79
2023/04/24 11:57:16;;;;;;;0.13;0.13;;;20.40;76.10;;;;;;5038990;28;20036;-79
2023/04/24 11:59:41;;;;;;;0.63;0.30;;;20.50;75.70;;;;;;5040293;28;20508;-79
2023/04/24 12:02:07;;;;;;;1.58;0.30;;;20.60;75.00;;;;;;5033772;28;20026;-79
2023/04/24 12:04:40;;;;;;;1.05;0.55;;;20.60;74.40;;;;;;5035253;28;20358;-79
2023/04/24 12:07:10;;;;;;;0.25;0.20;;;20.70;73.50;;;;;;5037297;28;20056;-79
2023/04/24 12:09:47;;;;;;;1.05;0.30;;;20.70;73.50;;;;;;5011505;28;20060;-79
2023/04/24 12:12:18;;;;;;;0.22;0.20;;;20.80;73.60;;;;;;5031173;28;20522;-79
2023/04/24 12:14:54;;;;;;;1.38;0.20;;;20.90;72.10;;;;;;5032339;28;20022;-78
2023/04/24 12:17:41;;;;;;;0.28;0.22;;;20.90;70.20;;;;;;5027318;28;20029;-78
2023/04/24 12:20:08;;;;;;;0.10;0.00;;;20.80;70.60;;;;;;5031217;28;20032;-78
2023/04/24 12:22:54;;;;;;;0.20;0.20;;;20.70;71.50;;;;;;5035624;28;20029;-78
2023/04/24 12:25:25;;;;;;;0.10;0.10;;;20.80;71.40;;;;;;5037116;28;21824;-78
2023/04/24 12:28:05;;;;;;;0.20;0.20;;;20.80;71.70;;;;;;5018713;28;20546;-78
2023/04/24 12:30:38;;;;;;;0.20;0.20;;;20.70;71.30;;;;;;5037600;28;20017;-78
2023/04/24 12:33:03;;;;;;;0.22;0.10;;;20.60;71.10;;;;;;5030821;28;20036;-78
2023/04/24 12:35:31;;;;;;;1.00;0.20;;;20.50;71.70;;;;;;5031923;28;20362;-78
2023/04/24 12:38:10;;;;;;;1.27;0.40;;;20.40;71.40;;;;;;5035007;28;20029;-78
2023/04/24 12:40:36;;;;;;;0.40;0.32;;;20.20;72.10;;;;;;5021411;28;20025;-78
2023/04/24 12:43:12;;;;;;;0.47;0.20;;;20.00;71.00;;;;;;5031773;28;20044;-79
2023/04/24 12:45:37;;;;;;;0.10;0.10;;;20.00;72.20;;;;;;5039671;28;20033;-78
2023/04/24 12:48:03;;;;;;;0.20;0.20;;;19.90;73.00;;;;;;5036557;28;20049;-78